Time,TemperatureF,DewpointF,PressureIn,WindDirection,WindDirectionDegrees,WindSpeedMPH,WindSpeedGustMPH,Humidity,HourlyPrecipIn,Conditions,Clouds,dailyrainin,SoftwareType,DateUTC
2013-08-03 00:00:00,67.1,62.4,29.82,South,178,1.0,3.0,85,0.00,,,0.00,Wunderground v.1.15,2013-08-03 07:00:00,
2013-08-03 00:10:00,66.9,62.6,29.81,South,178,2.0,2.0,86,0.00,,,0.00,Wunderground v.1.15,2013-08-03 07:10:00,
2013-08-03 00:15:00,66.9,62.6,29.81,South,178,1.0,2.0,86,0.00,,,0.00,Wunderground v.1.15,2013-08-03 07:15:00,
2013-08-03 00:25:00,66.8,62.5,29.82,South,178,0.0,0.0,86,0.00,,,0.00,Wunderground v.1.15,2013-08-03 07:25:00,
2013-08-03 00:30:00,66.7,62.4,29.82,South,178,0.0,0.0,86,0.00,,,0.00,Wunderground v.1.15,2013-08-03 07:30:00,
2013-08-03 00:36:00,66.6,62.6,29.82,South,178,0.0,0.0,87,0.00,,,0.00,Wunderground v.1.15,2013-08-03 07:36:00,
2013-08-03 00:45:00,66.2,62.2,29.81,South,178,1.0,1.0,87,0.00,,,0.00,Wunderground v.1.15,2013-08-03 07:45:00,
2013-08-03 00:57:00,66.2,62.2,29.81,South,178,0.0,1.0,87,0.00,,,0.00,Wunderground v.1.15,2013-08-03 07:57:00,
2013-08-03 01:05:00,66.3,62.3,29.81,South,178,2.0,4.0,87,0.00,,,0.00,Wunderground v.1.15,2013-08-03 08:05:00,
2013-08-03 01:10:00,66.1,62.1,29.81,South,178,1.0,1.0,87,0.00,,,0.00,Wunderground v.1.15,2013-08-03 08:10:00,
2013-08-03 01:20:00,65.9,62.2,29.81,South,178,0.0,0.0,88,0.00,,,0.00,Wunderground v.1.15,2013-08-03 08:20:00,
2013-08-03 01:25:00,65.7,62.0,29.81,South,178,0.0,0.0,88,0.00,,,0.00,Wunderground v.1.15,2013-08-03 08:25:00,
2013-08-03 01:30:00,65.5,61.5,29.81,South,178,0.0,1.0,87,0.00,,,0.00,Wunderground v.1.15,2013-08-03 08:30:00,
2013-08-03 01:40:00,65.4,61.4,29.80,South,178,0.0,0.0,87,0.00,,,0.00,Wunderground v.1.15,2013-08-03 08:40:00,
2013-08-03 01:45:00,65.4,61.4,29.80,South,178,0.0,0.0,87,0.00,,,0.00,Wunderground v.1.15,2013-08-03 08:45:00,
2013-08-03 01:55:00,65.7,61.7,29.80,South,178,0.0,0.0,87,0.00,,,0.00,Wunderground v.1.15,2013-08-03 08:55:00,
2013-08-03 02:00:00,65.4,61.4,29.80,South,178,0.0,0.0,87,0.00,,,0.00,Wunderground v.1.15,2013-08-03 09:00:00,
2013-08-03 02:10:00,65.2,61.6,29.80,South,178,0.0,0.0,88,0.00,,,0.00,Wunderground v.1.15,2013-08-03 09:10:00,
2013-08-03 02:15:00,64.9,61.6,29.80,South,178,0.0,0.0,89,0.00,,,0.00,Wunderground v.1.15,2013-08-03 09:15:00,
2013-08-03 02:20:00,64.7,61.4,29.80,South,178,0.0,0.0,89,0.00,,,0.00,Wunderground v.1.15,2013-08-03 09:20:00,
2013-08-03 02:30:00,64.3,61.0,29.80,South,178,0.0,0.0,89,0.00,,,0.00,Wunderground v.1.15,2013-08-03 09:30:00,
2013-08-03 02:35:00,64.3,61.0,29.80,South,178,0.0,0.0,89,0.00,,,0.00,Wunderground v.1.15,2013-08-03 09:35:00,
2013-08-03 02:40:00,64.3,61.3,29.80,South,178,0.0,0.0,90,0.00,,,0.00,Wunderground v.1.15,2013-08-03 09:40:00,
2013-08-03 02:50:00,64.2,61.2,29.80,South,178,0.0,0.0,90,0.00,,,0.00,Wunderground v.1.15,2013-08-03 09:50:00,
2013-08-03 02:55:00,64.2,61.2,29.80,South,178,1.0,1.0,90,0.00,,,0.00,Wunderground v.1.15,2013-08-03 09:55:00,
2013-08-03 03:00:00,64.0,61.0,29.80,South,178,1.0,1.0,90,0.00,,,0.00,Wunderground v.1.15,2013-08-03 10:00:00,
2013-08-03 03:10:00,63.7,60.7,29.79,South,178,0.0,0.0,90,0.00,,,0.00,Wunderground v.1.15,2013-08-03 10:10:00,
2013-08-03 03:20:00,63.7,60.4,29.80,South,178,0.0,0.0,89,0.00,,,0.00,Wunderground v.1.15,2013-08-03 10:20:00,
2013-08-03 03:25:00,63.6,60.3,29.80,South,178,0.0,0.0,89,0.00,,,0.00,Wunderground v.1.15,2013-08-03 10:25:00,
2013-08-03 03:30:00,63.5,60.2,29.80,South,178,0.0,0.0,89,0.00,,,0.00,Wunderground v.1.15,2013-08-03 10:30:00,
2013-08-03 03:40:00,63.3,60.0,29.80,South,178,0.0,0.0,89,0.00,,,0.00,Wunderground v.1.15,2013-08-03 10:40:00,
2013-08-03 03:45:00,63.1,59.8,29.80,South,178,0.0,4.0,89,0.00,,,0.00,Wunderground v.1.15,2013-08-03 10:45:00,
2013-08-03 03:55:00,62.9,60.2,29.80,South,178,4.0,5.0,91,0.00,,,0.00,Wunderground v.1.15,2013-08-03 10:55:00,
2013-08-03 04:00:00,63.0,60.3,29.80,South,178,2.0,2.0,91,0.00,,,0.00,Wunderground v.1.15,2013-08-03 11:00:00,
2013-08-03 04:10:00,62.9,59.9,29.80,South,178,0.0,0.0,90,0.00,,,0.00,Wunderground v.1.15,2013-08-03 11:10:00,
2013-08-03 04:15:00,62.8,59.8,29.80,South,178,0.0,0.0,90,0.00,,,0.00,Wunderground v.1.15,2013-08-03 11:15:00,
2013-08-03 04:20:00,62.8,59.8,29.80,South,178,0.0,0.0,90,0.00,,,0.00,Wunderground v.1.15,2013-08-03 11:20:00,
2013-08-03 04:25:00,62.6,59.6,29.80,South,178,0.0,0.0,90,0.00,,,0.00,Wunderground v.1.15,2013-08-03 11:25:00,
2013-08-03 04:35:00,62.3,59.6,29.81,South,178,0.0,0.0,91,0.00,,,0.00,Wunderground v.1.15,2013-08-03 11:35:00,
2013-08-03 04:45:00,62.1,59.1,29.81,South,178,0.0,0.0,90,0.00,,,0.00,Wunderground v.1.15,2013-08-03 11:45:00,
2013-08-03 04:55:00,61.9,59.2,29.81,South,178,0.0,0.0,91,0.00,,,0.00,Wunderground v.1.15,2013-08-03 11:55:00,
2013-08-03 05:00:00,61.9,59.2,29.81,South,178,0.0,0.0,91,0.00,,,0.00,Wunderground v.1.15,2013-08-03 12:00:00,
2013-08-03 05:10:00,62.1,59.7,29.82,South,178,0.0,0.0,92,0.00,,,0.00,Wunderground v.1.15,2013-08-03 12:10:00,
2013-08-03 05:20:00,62.6,60.5,29.82,South,178,0.0,0.0,93,0.00,,,0.00,Wunderground v.1.15,2013-08-03 12:20:00,
2013-08-03 05:25:00,62.4,60.0,29.82,South,178,0.0,0.0,92,0.00,,,0.00,Wunderground v.1.15,2013-08-03 12:25:00,
2013-08-03 05:30:00,62.3,59.9,29.83,South,179,0.0,0.0,92,0.00,,,0.00,Wunderground v.1.15,2013-08-03 12:30:00,
2013-08-03 05:35:00,62.0,59.6,29.83,South,179,0.0,0.0,92,0.00,,,0.00,Wunderground v.1.15,2013-08-03 12:35:00,
2013-08-03 05:45:00,61.4,58.7,29.84,SSW,198,2.0,3.0,91,0.00,,,0.00,Wunderground v.1.15,2013-08-03 12:45:00,
2013-08-03 05:50:00,61.2,58.9,29.84,SSW,202,3.0,3.0,92,0.00,,,0.00,Wunderground v.1.15,2013-08-03 12:50:00,
2013-08-03 05:55:00,61.1,58.8,29.83,SSW,207,3.0,3.0,92,0.00,,,0.00,Wunderground v.1.15,2013-08-03 12:55:00,
2013-08-03 06:00:00,61.3,59.0,29.84,SSW,207,2.0,2.0,92,0.00,,,0.00,Wunderground v.1.15,2013-08-03 13:00:00,
2013-08-03 06:10:00,61.6,58.9,29.84,SSW,207,2.0,2.0,91,0.00,,,0.00,Wunderground v.1.15,2013-08-03 13:10:00,
2013-08-03 06:15:00,61.8,59.1,29.84,SSW,207,1.0,2.0,91,0.00,,,0.00,Wunderground v.1.15,2013-08-03 13:15:00,
2013-08-03 06:25:00,62.5,59.8,29.84,SSW,207,0.0,0.0,91,0.00,,,0.00,Wunderground v.1.15,2013-08-03 13:25:00,
2013-08-03 06:30:00,62.7,60.0,29.85,SSW,207,0.0,0.0,91,0.00,,,0.00,Wunderground v.1.15,2013-08-03 13:30:00,
2013-08-03 06:35:00,63.0,60.3,29.85,SW,215,0.0,0.0,91,0.00,,,0.00,Wunderground v.1.15,2013-08-03 13:35:00,
2013-08-03 06:45:00,64.0,61.6,29.86,WNW,301,0.0,0.0,92,0.00,,,0.00,Wunderground v.1.15,2013-08-03 13:45:00,
2013-08-03 06:50:00,64.7,61.7,29.85,NW,317,0.0,0.0,90,0.00,,,0.00,Wunderground v.1.15,2013-08-03 13:50:00,
2013-08-03 06:55:00,65.5,62.8,29.86,WSW,257,0.0,0.0,91,0.00,,,0.00,Wunderground v.1.15,2013-08-03 13:55:00,
2013-08-03 07:00:00,66.3,63.3,29.86,WSW,257,0.0,0.0,90,0.00,,,0.00,Wunderground v.1.15,2013-08-03 14:00:00,
2013-08-03 07:10:00,67.7,63.4,29.86,WSW,257,0.0,0.0,86,0.00,,,0.00,Wunderground v.1.15,2013-08-03 14:10:00,
2013-08-03 07:15:00,68.3,63.6,29.86,WSW,257,0.0,0.0,85,0.00,,,0.00,Wunderground v.1.15,2013-08-03 14:15:00,
2013-08-03 07:20:00,68.8,63.8,29.86,WSW,257,0.0,0.0,84,0.00,,,0.00,Wunderground v.1.15,2013-08-03 14:20:00,
2013-08-03 07:25:00,69.5,64.1,29.86,West,259,0.0,0.0,83,0.00,,,0.00,Wunderground v.1.15,2013-08-03 14:25:00,
2013-08-03 07:35:00,71.1,64.6,29.86,West,259,0.0,0.0,80,0.00,,,0.00,Wunderground v.1.15,2013-08-03 14:35:00,
2013-08-03 07:40:00,72.1,65.6,29.86,West,259,0.0,0.0,80,0.00,,,0.00,Wunderground v.1.15,2013-08-03 14:40:00,
2013-08-03 07:45:00,73.0,65.4,29.86,West,259,0.0,0.0,77,0.00,,,0.00,Wunderground v.1.15,2013-08-03 14:45:00,
2013-08-03 07:55:00,74.1,66.8,29.86,West,262,0.0,0.0,78,0.00,,,0.00,Wunderground v.1.15,2013-08-03 14:55:00,
2013-08-03 08:00:00,74.6,66.1,29.86,West,263,0.0,0.0,75,0.00,,,0.00,Wunderground v.1.15,2013-08-03 15:00:00,
2013-08-03 08:10:00,75.9,67.0,29.86,NNE,19,0.0,0.0,74,0.00,,,0.00,Wunderground v.1.15,2013-08-03 15:10:00,
2013-08-03 08:15:00,76.1,67.2,29.86,NNE,22,0.0,2.0,74,0.00,,,0.00,Wunderground v.1.15,2013-08-03 15:15:00,
2013-08-03 08:25:00,75.8,66.5,29.86,NE,55,2.0,3.0,73,0.00,,,0.00,Wunderground v.1.15,2013-08-03 15:25:00,
2013-08-03 08:30:00,75.7,66.0,29.86,ENE,61,3.0,3.0,72,0.00,,,0.00,Wunderground v.1.15,2013-08-03 15:30:00,
2013-08-03 08:35:00,75.8,66.1,29.86,ENE,61,2.0,3.0,72,0.00,,,0.00,Wunderground v.1.15,2013-08-03 15:35:00,
2013-08-03 08:45:00,76.3,66.2,29.86,NE,53,1.0,1.0,71,0.00,,,0.00,Wunderground v.1.15,2013-08-03 15:45:00,
2013-08-03 08:50:00,76.6,64.8,29.86,NE,53,1.0,1.0,67,0.00,,,0.00,Wunderground v.1.15,2013-08-03 15:50:00,
2013-08-03 08:55:00,77.1,66.1,29.86,NE,53,0.0,1.0,69,0.00,,,0.00,Wunderground v.1.15,2013-08-03 15:55:00,
2013-08-03 09:00:00,77.4,65.1,29.86,NE,53,0.0,0.0,66,0.00,,,0.00,Wunderground v.1.15,2013-08-03 16:00:00,
2013-08-03 09:10:00,78.0,65.7,29.86,NE,45,0.0,0.0,66,0.00,,,0.00,Wunderground v.1.15,2013-08-03 16:10:00,
2013-08-03 09:15:00,78.4,63.4,29.86,NE,45,0.0,0.0,60,0.00,,,0.00,Wunderground v.1.15,2013-08-03 16:15:00,
2013-08-03 09:20:00,78.7,64.6,29.86,NE,45,0.0,0.0,62,0.00,,,0.00,Wunderground v.1.15,2013-08-03 16:20:00,
2013-08-03 09:25:00,78.7,63.2,29.86,NE,45,0.0,0.0,59,0.00,,,0.00,Wunderground v.1.15,2013-08-03 16:25:00,
2013-08-03 09:35:00,79.3,60.1,29.86,NE,42,0.0,0.0,52,0.00,,,0.00,Wunderground v.1.15,2013-08-03 16:35:00,
2013-08-03 09:40:00,79.8,62.7,29.86,NE,42,0.0,0.0,56,0.00,,,0.00,Wunderground v.1.15,2013-08-03 16:40:00,
2013-08-03 09:45:00,80.1,63.0,29.86,NE,42,1.0,3.0,56,0.00,,,0.00,Wunderground v.1.15,2013-08-03 16:45:00,
2013-08-03 09:50:00,80.2,64.1,29.85,NE,41,1.0,2.0,58,0.00,,,0.00,Wunderground v.1.15,2013-08-03 16:50:00,
2013-08-03 10:00:00,80.3,62.7,29.85,NE,34,1.0,1.0,55,0.00,,,0.00,Wunderground v.1.15,2013-08-03 17:00:00,
2013-08-03 10:10:00,80.7,61.4,29.85,NE,34,2.0,4.0,52,0.00,,,0.00,Wunderground v.1.15,2013-08-03 17:10:00,
2013-08-03 10:15:00,80.9,62.2,29.85,NE,34,3.0,4.0,53,0.00,,,0.00,Wunderground v.1.15,2013-08-03 17:15:00,
2013-08-03 10:25:00,81.2,61.9,29.85,NE,34,1.0,2.0,52,0.00,,,0.00,Wunderground v.1.15,2013-08-03 17:25:00,
2013-08-03 10:30:00,81.6,62.8,29.85,NE,34,0.0,0.0,53,0.00,,,0.00,Wunderground v.1.15,2013-08-03 17:30:00,
2013-08-03 10:35:00,82.0,63.7,29.85,NE,34,0.0,0.0,54,0.00,,,0.00,Wunderground v.1.15,2013-08-03 17:35:00,
2013-08-03 10:40:00,82.4,62.5,29.85,NE,34,0.0,0.0,51,0.00,,,0.00,Wunderground v.1.15,2013-08-03 17:40:00,
2013-08-03 10:50:00,82.6,60.9,29.86,NNW,342,1.0,1.0,48,0.00,,,0.00,Wunderground v.1.15,2013-08-03 17:50:00,
2013-08-03 10:55:00,82.8,62.3,29.85,ENE,59,0.0,1.0,50,0.00,,,0.00,Wunderground v.1.15,2013-08-03 17:55:00,
2013-08-03 11:00:00,83.1,62.5,29.85,ESE,113,0.0,0.0,50,0.00,,,0.00,Wunderground v.1.15,2013-08-03 18:00:00,
2013-08-03 11:10:00,83.4,63.4,29.85,NNE,33,2.0,4.0,51,0.00,,,0.00,Wunderground v.1.15,2013-08-03 18:10:00,
2013-08-03 11:15:00,83.4,62.8,29.85,NNE,32,1.0,4.0,50,0.00,,,0.00,Wunderground v.1.15,2013-08-03 18:15:00,
2013-08-03 11:20:00,83.8,63.2,29.84,ENE,61,0.0,0.0,50,0.00,,,0.00,Wunderground v.1.15,2013-08-03 18:20:00,
2013-08-03 11:25:00,84.0,62.8,29.84,NE,52,1.0,3.0,49,0.00,,,0.00,Wunderground v.1.15,2013-08-03 18:25:00,
2013-08-03 11:35:00,83.9,62.7,29.84,NE,53,2.0,2.0,49,0.00,,,0.00,Wunderground v.1.15,2013-08-03 18:35:00,
2013-08-03 11:40:00,84.0,62.2,29.84,ENE,57,1.0,1.0,48,0.00,,,0.00,Wunderground v.1.15,2013-08-03 18:40:00,
2013-08-03 11:45:00,84.5,61.4,29.84,ENE,57,0.0,1.0,46,0.00,,,0.00,Wunderground v.1.15,2013-08-03 18:45:00,
2013-08-03 11:55:00,84.9,60.6,29.83,ENE,62,1.0,1.0,44,0.00,,,0.00,Wunderground v.1.15,2013-08-03 18:55:00,
2013-08-03 12:00:00,85.1,60.1,29.83,ENE,62,0.0,0.0,43,0.00,,,0.00,Wunderground v.1.15,2013-08-03 19:00:00,
2013-08-03 12:10:00,85.4,60.4,29.83,ENE,73,3.0,4.0,43,0.00,,,0.00,Wunderground v.1.15,2013-08-03 19:10:00,
2013-08-03 12:20:00,85.4,60.4,29.83,NE,46,3.0,3.0,43,0.00,,,0.00,Wunderground v.1.15,2013-08-03 19:20:00,
2013-08-03 12:25:00,85.7,60.0,29.82,NE,46,2.0,3.0,42,0.00,,,0.00,Wunderground v.1.15,2013-08-03 19:25:00,
2013-08-03 12:35:00,86.3,61.2,29.82,NE,42,1.0,1.0,43,0.00,,,0.00,Wunderground v.1.15,2013-08-03 19:35:00,
2013-08-03 12:40:00,86.5,58.6,29.82,NE,42,1.0,1.0,39,0.00,,,0.00,Wunderground v.1.15,2013-08-03 19:40:00,
2013-08-03 12:45:00,86.6,60.8,29.82,NE,40,1.0,2.0,42,0.00,,,0.00,Wunderground v.1.15,2013-08-03 19:45:00,
2013-08-03 12:55:00,86.9,61.0,29.82,NE,44,2.0,2.0,42,0.00,,,0.00,Wunderground v.1.15,2013-08-03 19:55:00,
2013-08-03 13:00:00,86.8,58.1,29.82,NE,45,3.0,3.0,38,0.00,,,0.00,Wunderground v.1.15,2013-08-03 20:00:00,
2013-08-03 13:10:00,87.4,59.4,29.81,NE,44,2.0,3.0,39,0.00,,,0.00,Wunderground v.1.15,2013-08-03 20:10:00,
2013-08-03 13:15:00,87.3,58.6,29.81,NNE,26,4.0,4.0,38,0.00,,,0.00,Wunderground v.1.15,2013-08-03 20:15:00,
2013-08-03 13:20:00,87.4,57.2,29.81,East,79,3.0,3.0,36,0.00,,,0.00,Wunderground v.1.15,2013-08-03 20:20:00,
2013-08-03 13:30:00,88.1,60.0,29.81,North,11,2.0,3.0,39,0.00,,,0.00,Wunderground v.1.15,2013-08-03 20:30:00,
2013-08-03 13:35:00,88.6,60.5,29.81,NNE,23,3.0,3.0,39,0.00,,,0.00,Wunderground v.1.15,2013-08-03 20:35:00,
2013-08-03 13:45:00,88.7,59.1,29.80,NE,36,2.0,5.0,37,0.00,,,0.00,Wunderground v.1.15,2013-08-03 20:45:00,
2013-08-03 13:50:00,88.5,57.4,29.80,NE,49,2.0,2.0,35,0.00,,,0.00,Wunderground v.1.15,2013-08-03 20:50:00,
2013-08-03 13:55:00,88.6,60.5,29.79,NE,40,1.0,2.0,39,0.00,,,0.00,Wunderground v.1.15,2013-08-03 20:55:00,
2013-08-03 14:00:00,88.4,58.1,29.79,NNE,17,2.0,2.0,36,0.00,,,0.00,Wunderground v.1.15,2013-08-03 21:00:00,
2013-08-03 14:10:00,88.6,59.0,29.79,NNE,26,2.0,2.0,37,0.00,,,0.00,Wunderground v.1.15,2013-08-03 21:10:00,
2013-08-03 14:15:00,88.5,61.1,29.78,NNE,19,2.0,5.0,40,0.00,,,0.00,Wunderground v.1.15,2013-08-03 21:15:00,
2013-08-03 14:20:00,88.5,59.7,29.78,NE,37,3.0,3.0,38,0.00,,,0.00,Wunderground v.1.15,2013-08-03 21:20:00,
2013-08-03 14:25:00,88.4,59.6,29.78,NE,46,4.0,6.0,38,0.00,,,0.00,Wunderground v.1.15,2013-08-03 21:25:00,
2013-08-03 14:30:00,88.5,60.4,29.78,NNE,30,4.0,5.0,39,0.00,,,0.00,Wunderground v.1.15,2013-08-03 21:30:00,
2013-08-03 14:40:00,89.1,57.9,29.77,ENE,65,2.0,2.0,35,0.00,,,0.00,Wunderground v.1.15,2013-08-03 21:40:00,
2013-08-03 14:45:00,89.2,60.3,29.76,North,355,1.0,3.0,38,0.00,,,0.00,Wunderground v.1.15,2013-08-03 21:45:00,
2013-08-03 14:50:00,89.5,60.5,29.76,NNW,343,1.0,1.0,38,0.00,,,0.00,Wunderground v.1.15,2013-08-03 21:50:00,
2013-08-03 15:00:00,89.7,60.7,29.76,NNE,30,1.0,1.0,38,0.00,,,0.00,Wunderground v.1.15,2013-08-03 22:00:00,
2013-08-03 15:10:00,89.8,60.1,29.76,East,82,1.0,3.0,37,0.00,,,0.00,Wunderground v.1.15,2013-08-03 22:10:00,
2013-08-03 15:15:00,90.1,58.8,29.76,East,87,1.0,3.0,35,0.00,,,0.00,Wunderground v.1.15,2013-08-03 22:15:00,
2013-08-03 15:20:00,90.2,58.8,29.76,NE,54,1.0,1.0,35,0.00,,,0.00,Wunderground v.1.15,2013-08-03 22:20:00,
2013-08-03 15:25:00,90.6,58.4,29.76,NE,53,1.0,4.0,34,0.00,,,0.00,Wunderground v.1.15,2013-08-03 22:25:00,
2013-08-03 15:35:00,90.7,58.5,29.75,East,82,1.0,5.0,34,0.00,,,0.00,Wunderground v.1.15,2013-08-03 22:35:00,
2013-08-03 15:40:00,90.6,59.2,29.75,ENE,64,2.0,2.0,35,0.00,,,0.00,Wunderground v.1.15,2013-08-03 22:40:00,
2013-08-03 15:45:00,90.5,59.1,29.75,NE,44,3.0,3.0,35,0.00,,,0.00,Wunderground v.1.15,2013-08-03 22:45:00,
2013-08-03 15:55:00,90.3,58.1,29.75,ENE,59,2.0,2.0,34,0.00,,,0.00,Wunderground v.1.15,2013-08-03 22:55:00,
2013-08-03 16:00:00,89.9,56.9,29.75,NE,53,2.0,2.0,33,0.00,,,0.00,Wunderground v.1.15,2013-08-03 23:00:00,
2013-08-03 16:10:00,90.1,58.0,29.74,NE,53,0.0,0.0,34,0.00,,,0.00,Wunderground v.1.15,2013-08-03 23:10:00,
2013-08-03 16:15:00,90.7,60.1,29.74,NE,53,0.0,0.0,36,0.00,,,0.00,Wunderground v.1.15,2013-08-03 23:15:00,
2013-08-03 16:20:00,90.8,56.0,29.74,East,89,1.0,1.0,31,0.00,,,0.00,Wunderground v.1.15,2013-08-03 23:20:00,
2013-08-03 16:30:00,90.2,56.4,29.75,East,89,0.0,0.0,32,0.00,,,0.00,Wunderground v.1.15,2013-08-03 23:30:00,
2013-08-03 16:35:00,90.1,60.3,29.75,East,89,0.0,0.0,37,0.00,,,0.00,Wunderground v.1.15,2013-08-03 23:35:00,
2013-08-03 16:40:00,90.0,58.7,29.75,East,89,0.0,0.0,35,0.00,,,0.00,Wunderground v.1.15,2013-08-03 23:40:00,
2013-08-03 16:50:00,90.1,57.1,29.74,East,89,0.0,0.0,33,0.00,,,0.00,Wunderground v.1.15,2013-08-03 23:50:00,
2013-08-03 16:55:00,90.0,57.0,29.74,East,89,0.0,0.0,33,0.00,,,0.00,Wunderground v.1.15,2013-08-03 23:55:00,
2013-08-03 17:00:00,89.5,59.8,29.74,East,89,0.0,0.0,37,0.00,,,0.00,Wunderground v.1.15,2013-08-04 00:00:00,
2013-08-03 17:10:00,88.8,59.2,29.74,East,101,1.0,1.0,37,0.00,,,0.00,Wunderground v.1.15,2013-08-04 00:10:00,
2013-08-03 17:20:00,88.6,58.2,29.74,East,101,0.0,0.0,36,0.00,,,0.00,Wunderground v.1.15,2013-08-04 00:20:00,
2013-08-03 17:25:00,88.4,60.3,29.74,East,101,0.0,0.0,39,0.00,,,0.00,Wunderground v.1.15,2013-08-04 00:25:00,
2013-08-03 17:30:00,88.0,59.2,29.74,East,101,0.0,0.0,38,0.00,,,0.00,Wunderground v.1.15,2013-08-04 00:30:00,
2013-08-03 17:40:00,87.6,56.6,29.73,East,101,0.0,0.0,35,0.00,,,0.00,Wunderground v.1.15,2013-08-04 00:40:00,
2013-08-03 17:45:00,87.5,59.5,29.73,East,101,0.0,0.0,39,0.00,,,0.00,Wunderground v.1.15,2013-08-04 00:45:00,
2013-08-03 17:50:00,87.3,59.3,29.73,East,101,0.0,0.0,39,0.00,,,0.00,Wunderground v.1.15,2013-08-04 00:50:00,
2013-08-03 18:00:00,86.8,59.6,29.74,East,101,0.0,0.0,40,0.00,,,0.00,Wunderground v.1.15,2013-08-04 01:00:00,
2013-08-03 18:10:00,86.3,57.7,29.73,SSW,206,2.0,4.0,38,0.00,,,0.00,Wunderground v.1.15,2013-08-04 01:10:00,
2013-08-03 18:15:00,86.0,58.2,29.74,SW,233,5.0,7.0,39,0.00,,,0.00,Wunderground v.1.15,2013-08-04 01:15:00,
2013-08-03 18:20:00,85.8,56.5,29.73,WSW,240,8.0,10.0,37,0.00,,,0.00,Wunderground v.1.15,2013-08-04 01:20:00,
2013-08-03 18:25:00,85.7,56.4,29.74,SW,236,10.0,12.0,37,0.00,,,0.00,Wunderground v.1.15,2013-08-04 01:25:00,
2013-08-03 18:35:00,85.4,56.9,29.73,WSW,246,9.0,10.0,38,0.00,,,0.00,Wunderground v.1.15,2013-08-04 01:35:00,
2013-08-03 18:40:00,85.2,56.7,29.73,WSW,242,8.0,8.0,38,0.00,,,0.00,Wunderground v.1.15,2013-08-04 01:40:00,
2013-08-03 18:45:00,84.9,56.5,29.73,WSW,244,8.0,8.0,38,0.00,,,0.00,Wunderground v.1.15,2013-08-04 01:45:00,
2013-08-03 18:55:00,84.2,57.3,29.73,West,263,5.0,6.0,40,0.00,,,0.00,Wunderground v.1.15,2013-08-04 01:55:00,
2013-08-03 19:00:00,83.8,56.2,29.74,WNW,288,6.0,7.0,39,0.00,,,0.00,Wunderground v.1.15,2013-08-04 02:00:00,
2013-08-03 19:10:00,83.5,56.6,29.74,WNW,286,6.0,9.0,40,0.00,,,0.00,Wunderground v.1.15,2013-08-04 02:10:00,
2013-08-03 19:15:00,82.9,56.1,29.74,West,281,7.0,9.0,40,0.00,,,0.00,Wunderground v.1.15,2013-08-04 02:15:00,
2013-08-03 19:20:00,82.6,56.5,29.74,West,279,7.0,7.0,41,0.00,,,0.00,Wunderground v.1.15,2013-08-04 02:20:00,
2013-08-03 19:30:00,81.5,56.8,29.74,West,259,5.0,6.0,43,0.00,,,0.00,Wunderground v.1.15,2013-08-04 02:30:00,
2013-08-03 19:35:00,81.2,56.6,29.74,West,259,5.0,6.0,43,0.00,,,0.00,Wunderground v.1.15,2013-08-04 02:35:00,
2013-08-03 19:40:00,81.0,57.0,29.74,West,267,5.0,5.0,44,0.00,,,0.00,Wunderground v.1.15,2013-08-04 02:40:00,
2013-08-03 19:50:00,80.4,57.7,29.74,West,267,1.0,1.0,46,0.00,,,0.00,Wunderground v.1.15,2013-08-04 02:50:00,
2013-08-03 19:55:00,80.2,57.5,29.74,WNW,286,1.0,3.0,46,0.00,,,0.00,Wunderground v.1.15,2013-08-04 02:55:00,
2013-08-03 20:00:00,80.3,57.6,29.75,WNW,287,2.0,2.0,46,0.00,,,0.00,Wunderground v.1.15,2013-08-04 03:00:00,
2013-08-03 20:10:00,81.1,56.5,29.75,WNW,289,3.0,3.0,43,0.00,,,0.00,Wunderground v.1.15,2013-08-04 03:10:00,
2013-08-03 20:15:00,81.1,57.1,29.75,WNW,289,3.0,3.0,44,0.00,,,0.00,Wunderground v.1.15,2013-08-04 03:15:00,
2013-08-03 20:25:00,80.5,58.4,29.75,WNW,289,3.0,3.0,47,0.00,,,0.00,Wunderground v.1.15,2013-08-04 03:25:00,
2013-08-03 20:30:00,80.0,58.5,29.75,WNW,289,3.0,3.0,48,0.00,,,0.00,Wunderground v.1.15,2013-08-04 03:30:00,
2013-08-03 20:40:00,79.7,57.7,29.75,WNW,288,3.0,4.0,47,0.00,,,0.00,Wunderground v.1.15,2013-08-04 03:40:00,
2013-08-03 20:45:00,79.8,57.8,29.76,WNW,288,3.0,4.0,47,0.00,,,0.00,Wunderground v.1.15,2013-08-04 03:45:00,
2013-08-03 20:50:00,79.6,59.3,29.76,WNW,288,3.0,3.0,50,0.00,,,0.00,Wunderground v.1.15,2013-08-04 03:50:00,
2013-08-03 20:55:00,79.1,59.4,29.76,WNW,288,2.0,3.0,51,0.00,,,0.00,Wunderground v.1.15,2013-08-04 03:55:00,
2013-08-03 21:00:00,78.7,59.6,29.76,WNW,288,2.0,2.0,52,0.00,,,0.00,Wunderground v.1.15,2013-08-04 04:00:00,
2013-08-03 21:05:00,78.7,56.8,29.77,SW,234,3.0,5.0,47,0.00,,,0.00,Wunderground v.1.15,2013-08-04 04:05:00,
2013-08-03 21:15:00,79.3,57.9,29.77,WSW,257,4.0,4.0,48,0.00,,,0.00,Wunderground v.1.15,2013-08-04 04:15:00,
2013-08-03 21:20:00,79.2,57.8,29.77,West,259,4.0,4.0,48,0.00,,,0.00,Wunderground v.1.15,2013-08-04 04:20:00,
2013-08-03 21:25:00,78.8,58.0,29.77,West,259,5.0,6.0,49,0.00,,,0.00,Wunderground v.1.15,2013-08-04 04:25:00,
2013-08-03 21:30:00,78.7,57.4,29.77,West,279,5.0,5.0,48,0.00,,,0.00,Wunderground v.1.15,2013-08-04 04:30:00,
2013-08-03 21:35:00,79.3,57.9,29.77,WNW,288,4.0,5.0,48,0.00,,,0.00,Wunderground v.1.15,2013-08-04 04:35:00,
2013-08-03 21:45:00,79.6,58.2,29.77,WNW,282,2.0,3.0,48,0.00,,,0.00,Wunderground v.1.15,2013-08-04 04:45:00,
2013-08-03 21:50:00,79.7,57.7,29.76,West,265,3.0,6.0,47,0.00,,,0.00,Wunderground v.1.15,2013-08-04 04:50:00,
2013-08-03 22:00:00,79.6,57.0,29.77,West,260,6.0,6.0,46,0.00,,,0.00,Wunderground v.1.15,2013-08-04 05:00:00,
2013-08-03 22:10:00,79.3,57.3,29.77,West,261,4.0,4.0,47,0.00,,,0.00,Wunderground v.1.15,2013-08-04 05:10:00,
2013-08-03 22:15:00,79.1,56.5,29.77,West,259,2.0,4.0,46,0.00,,,0.00,Wunderground v.1.15,2013-08-04 05:15:00,
2013-08-03 22:25:00,79.3,56.1,29.77,WSW,254,5.0,9.0,45,0.00,,,0.00,Wunderground v.1.15,2013-08-04 05:25:00,
2013-08-03 22:30:00,79.4,56.2,29.77,WSW,251,5.0,5.0,45,0.00,,,0.00,Wunderground v.1.15,2013-08-04 05:30:00,
2013-08-03 22:40:00,78.8,56.9,29.77,WSW,254,4.0,4.0,47,0.00,,,0.00,Wunderground v.1.15,2013-08-04 05:40:00,
2013-08-03 22:45:00,78.7,56.8,29.77,WSW,253,3.0,4.0,47,0.00,,,0.00,Wunderground v.1.15,2013-08-04 05:45:00,
2013-08-03 22:50:00,78.6,57.3,29.77,WSW,253,3.0,3.0,48,0.00,,,0.00,Wunderground v.1.15,2013-08-04 05:50:00,
2013-08-03 22:55:00,78.3,57.6,29.77,WSW,253,2.0,3.0,49,0.00,,,0.00,Wunderground v.1.15,2013-08-04 05:55:00,
2013-08-03 23:00:00,78.0,57.3,29.78,WSW,242,2.0,2.0,49,0.00,,,0.00,Wunderground v.1.15,2013-08-04 06:00:00,
2013-08-03 23:10:00,77.6,58.6,29.78,WSW,242,0.0,0.0,52,0.00,,,0.00,Wunderground v.1.15,2013-08-04 06:10:00,
2013-08-03 23:15:00,77.2,61.3,29.78,WSW,242,0.0,0.0,58,0.00,,,0.00,Wunderground v.1.15,2013-08-04 06:15:00,
2013-08-03 23:20:00,76.4,60.5,29.78,South,176,0.0,0.0,58,0.00,,,0.00,Wunderground v.1.15,2013-08-04 06:20:00,
2013-08-03 23:30:00,75.5,59.7,29.78,South,176,0.0,0.0,58,0.00,,,0.00,Wunderground v.1.15,2013-08-04 06:30:00,
2013-08-03 23:35:00,75.3,59.0,29.78,South,173,0.0,1.0,57,0.00,,,0.00,Wunderground v.1.15,2013-08-04 06:35:00,
2013-08-03 23:40:00,75.3,59.5,29.78,East,100,1.0,1.0,58,0.00,,,0.00,Wunderground v.1.15,2013-08-04 06:40:00,
2013-08-03 23:50:00,75.8,59.0,29.78,East,100,0.0,0.0,56,0.00,,,0.00,Wunderground v.1.15,2013-08-04 06:50:00,
2013-08-03 23:55:00,75.9,59.6,29.78,East,100,0.0,0.0,57,0.00,,,0.00,Wunderground v.1.15,2013-08-04 06:55:00,